ADDS TAF Data INFO

IDs: Format: Raw Decoded Include METARs

Data at: 0939 UTC 01 Nov 2014

Region: TOP
KATL 010937Z 0110/0212 31020G29KT P6SM BKN030
  FM011600 32022G35KT P6SM BKN040
  FM012000 32020G32KT P6SM SCT040
  FM020000 33015G25KT P6SM SCT070
  FM020600 32012KT P6SM SKC


KBOS 010541Z 0106/0212 03012KT P6SM OVC080
  FM011000 03014G23KT P6SM SCT015 OVC035
  FM011400 02017G28KT P6SM -RA OVC015
  FM011800 03018G32KT 3SM -RA OVC008
  FM012100 01022G37KT 3SM -RA OVC015
  FM020400 36022G42KT P6SM OVC015
  FM020600 36022G42KT P6SM OVC025


KBWI 010857Z 0109/0212 36008KT P6SM OVC020
  FM011000 01009KT P6SM -SHRA OVC020
  FM011400 01012KT 3SM -SHRA BR OVC015
  FM011700 36015G23KT 5SM -SHRA BR OVC015
  FM011900 36016G25KT 6SM -SHRA OVC035
  FM012000 35015G24KT P6SM OVC040
  FM020200 34019G32KT P6SM OVC050


KCLE 010700Z 0107/0212 01014G24KT 4SM -RA BR BKN012 OVC025
  TEMPO 0107/0111 2SM -RA BR BKN008
  FM011100 36015G25KT 3SM -RASN BR BKN008 OVC015
  FM011500 36015G25KT 4SM -RASN BR BKN012 OVC025
  FM020000 35014KT 6SM -SHSN OVC020


KCLT 010834Z 0109/0206 02012KT P6SM -RA BKN025 OVC050
  FM011400 35015G23KT P6SM VCSH OVC017
  FM011700 35015G23KT P6SM BKN024 OVC040
  FM011900 34015G23KT P6SM BKN040
  FM020100 33013KT P6SM SCT120


KCVG 010855Z 0109/0212 34017G23KT 6SM -SN BR BKN017 OVC022
  FM011200 35016G26KT P6SM VCSH OVC018
  FM012000 34015G24KT P6SM BKN035
  FM012300 34005KT P6SM SKC


KDCA 010857Z 0109/0206 36008KT P6SM OVC025
  FM011100 36009KT P6SM OVC020
  FM011300 36010KT 6SM -SHRA OVC015
  FM011500 36013KT 3SM -SHRA BR OVC015
  FM011700 36015G23KT 5SM -SHRA BR OVC025
  FM011900 35015G25KT P6SM OVC030
  FM012000 35015G25KT P6SM OVC035


KDEN 010901Z 0109/0212 21008KT P6SM SCT150
  FM011600 15007KT P6SM SCT140 SCT220
  FM012000 10008KT P6SM SCT130 BKN200
  FM012300 05008KT P6SM FEW090 SCT130 BKN200
  FM020400 23011KT P6SM FEW140 SCT200


KDFW 010901Z 0109/0212 03007KT P6SM FEW250
  FM011500 13008KT P6SM SCT250


KDTW 010834Z 0109/0212 35015G25KT P6SM OVC025
  FM011000 36015G25KT P6SM OVC020
  FM011600 36015G25KT P6SM OVC025
  FM012200 36013KT P6SM BKN035
  FM020100 33007KT P6SM SCT035


KEWR 010844Z 0109/0212 02015G25KT 5SM -RA BR OVC015
  FM011700 36017G27KT 5SM -RA BR OVC015
  FM012200 35019G29KT P6SM BKN025 OVC035
  FM020100 34020G30KT P6SM SCT025 OVC040


KFLL 010859Z 0109/0206 29006KT P6SM SKC
  FM011400 30013G20KT P6SM SKC
  FM020000 31009KT P6SM SKC


KIAD 010857Z 0109/0212 35008KT P6SM OVC025
  FM011400 36012KT 5SM -SHRA BR OVC015
  FM011700 35015G23KT 6SM -SHRA OVC025
  FM011900 35016G26KT P6SM OVC030
  FM012100 34015G24KT P6SM OVC035
  FM020100 34019G32KT P6SM OVC040
  FM021100 32018G31KT P6SM SCT080


KIAH 010857Z 0109/0212 02004KT P6SM SKC
  FM011500 07007KT P6SM SKC
  FM020200 09005KT P6SM SKC


KJFK 010844Z 0109/0212 03018G28KT 5SM -RA BR OVC015
  FM011700 36022G32KT 5SM -RA BR OVC015
  FM012300 35022G32KT P6SM BKN025 OVC035
  FM020200 34025G35KT P6SM SCT025 OVC040


KLAS 010847Z 0109/0206 19012KT P6SM SCT160 BKN250
  FM011000 20013G19KT P6SM FEW070 BKN100
  FM011400 21016G25KT P6SM VCSH FEW030 BKN050 BKN200
  FM011800 21020G30KT P6SM FEW050 SCT090 BKN200
  FM020200 21012G20KT P6SM FEW070 SCT100 BKN200


KLAX 010858Z 0109/0212 25010KT P6SM FEW020 SCT030 BKN100
  FM011300 26015G22KT 5SM -RA BR SCT015 OVC025
  FM011800 27015KT P6SM SCT025 OVC040
  FM020900 31008KT P6SM OVC050


KLGA 010844Z 0109/0206 04017G27KT 5SM -RA BR OVC015
  FM011700 36021G31KT 5SM -RA BR OVC015
  FM012300 35022G32KT P6SM BKN025 OVC035
  FM020300 34024G34KT P6SM SCT025 OVC040


KMCO 010856Z 0109/0206 28007KT P6SM SKC
  FM011000 29013KT P6SM SKC
  FM011500 29019G26KT P6SM SKC
  FM012200 30013KT P6SM SKC
  FM020200 32009KT P6SM SKC


KMDW 010900Z 0109/0206 01014G24KT P6SM FEW020 OVC040
  FM011300 01012G18KT P6SM BKN030
  FM011700 02011KT P6SM BKN025
  FM020000 35004KT P6SM FEW025 SCT200


KMEM 010900Z 0109/0206 35008KT P6SM SKC
  FM011400 36011KT P6SM SKC
  FM020000 03004KT P6SM SKC


KMIA 010859Z 0109/0206 32008KT P6SM SKC
  FM011400 30012G20KT P6SM SKC
  FM020000 30008KT P6SM SKC


KMSP 010802Z 0108/0212 14008KT P6SM SKC
  FM012000 16013G20KT P6SM BKN200
  FM020000 15011KT P6SM SCT200


KORD 010900Z 0109/0212 36014G20KT P6SM FEW020 OVC040
  FM011400 01012G18KT P6SM BKN030
  FM011700 02011KT P6SM BKN025
  FM020000 VRB03KT P6SM FEW025 SCT200


KPDX 010851Z 0109/0206 VRB03KT 5SM BR BKN005
  FM011100 VRB03KT 1/2SM FG VV002
  FM011700 00000KT 1SM BR OVC004
  FM011800 VRB03KT 3SM BR BKN008
  FM012000 32003KT P6SM VCSH SCT040 BKN250


KPHL 010847Z 0109/0212 02015G25KT P6SM OVC015
  TEMPO 0109/0112 4SM RA BR OVC010
  FM011200 02017G27KT 5SM -RA OVC015
  FM011400 01018G28KT 5SM -RA OVC025
  FM012100 36018G28KT P6SM OVC035
  FM020500 33020G30KT P6SM OVC050


KPHX 010841Z 0109/0206 12006KT P6SM BKN200
  FM011400 17010KT P6SM SCT040
  FM011800 20009G17KT P6SM BKN050
  FM012200 24010KT P6SM SCT060


KPIT 010856Z 0109/0212 02007KT P6SM -DZ SCT007 OVC025
  TEMPO 0109/0110 5SM -RA BR BKN008 OVC025
  FM011600 35012G22KT P6SM VCSH BKN025


KSAN 010828Z 0108/0212 22009KT P6SM BKN025 BKN045
  TEMPO 0108/0110 SCT025 BKN050
  FM011030 23012G20KT 6SM -SHRA BR FEW008 BKN015
  FM011500 27011KT P6SM VCSH SCT015 BKN029 OVC050
  FM012000 28010KT P6SM SCT030 BKN045
  FM020100 28007KT P6SM VCSH SCT020 BKN035


KSEA 010903Z 0109/0212 VRB03KT 5SM BR SCT015 OVC060
  TEMPO 0109/0112 3SM BR BKN015 OVC060
  FM011200 VRB03KT 3SM BR BKN015 BKN060
  FM011800 27005KT P6SM BKN020 BKN060 BKN200


KSFO 010906Z 0109/0212 27005KT P6SM FEW020 BKN080
  FM011100 19006KT P6SM VCSH BKN040
  FM012100 28014KT P6SM VCSH BKN040
  FM020300 28009KT P6SM SCT040 BKN080
  FM020900 31004KT P6SM SCT050 BKN100


KSLC 010911Z 0109/0212 13007KT P6SM FEW100 BKN150
  FM011300 17014G22KT P6SM SCT100 BKN150
  FM011600 19020G30KT P6SM SCT080 SCT100 BKN150
  FM012100 19025G37KT P6SM -SHRA SCT040 BKN080
  FM020000 19015G25KT P6SM VCSH SCT040 BKN070
  FM020300 17013KT P6SM VCSH SCT040 BKN060


KSTL 010900Z 0109/0212 35008KT P6SM SKC
  FM012200 06005KT P6SM SCT250


KTPA 010849Z 0109/0206 30010G15KT P6SM VCSH BKN035
  FM011000 32013G22KT P6SM SCT035
  FM011200 33018G27KT P6SM SCT035
  FM012300 34010KT P6SM SKC



Page loaded:  09:39 UTC  |   02:39 AM Pacific  |   03:39 AM Mountain  |   04:39 AM Central  |   05:39 AM Eastern

 

ADVISORIES

FORECASTS

FORECASTS

OBSERVATIONS

USER TOOLS

ABOUT US